sensor_id;sensor_type;location;lat;lon;timestamp;P1;durP1;ratioP1;P2;durP2;ratioP2
74213;SDS011;62576;55.694;37.494;2023-05-10T00:01:37;11.63;;;4.78;;
74213;SDS011;62576;55.694;37.494;2023-05-10T00:04:07;13.48;;;5.13;;
74213;SDS011;62576;55.694;37.494;2023-05-10T00:06:38;12.23;;;5.10;;
74213;SDS011;62576;55.694;37.494;2023-05-10T00:09:08;11.35;;;5.40;;
74213;SDS011;62576;55.694;37.494;2023-05-10T00:11:38;12.65;;;4.88;;
74213;SDS011;62576;55.694;37.494;2023-05-10T00:14:08;13.63;;;4.57;;
74213;SDS011;62576;55.694;37.494;2023-05-10T00:16:41;12.00;;;4.80;;
74213;SDS011;62576;55.694;37.494;2023-05-10T00:19:12;15.60;;;5.10;;
74213;SDS011;62576;55.694;37.494;2023-05-10T00:21:39;13.27;;;4.50;;
74213;SDS011;62576;55.694;37.494;2023-05-10T00:24:10;12.50;;;5.00;;
74213;SDS011;62576;55.694;37.494;2023-05-10T00:26:40;12.90;;;4.78;;
74213;SDS011;62576;55.694;37.494;2023-05-10T00:29:10;11.50;;;5.20;;
74213;SDS011;62576;55.694;37.494;2023-05-10T00:31:40;12.60;;;5.10;;
74213;SDS011;62576;55.694;37.494;2023-05-10T00:34:12;13.77;;;5.40;;
74213;SDS011;62576;55.694;37.494;2023-05-10T00:36:41;12.23;;;5.05;;
74213;SDS011;62576;55.694;37.494;2023-05-10T00:39:11;12.70;;;4.97;;
74213;SDS011;62576;55.694;37.494;2023-05-10T00:41:41;12.82;;;5.20;;
74213;SDS011;62576;55.694;37.494;2023-05-10T00:44:14;11.55;;;5.18;;
74213;SDS011;62576;55.694;37.494;2023-05-10T00:46:44;13.18;;;5.10;;
74213;SDS011;62576;55.694;37.494;2023-05-10T00:49:16;13.50;;;5.30;;
74213;SDS011;62576;55.694;37.494;2023-05-10T00:51:46;11.05;;;4.88;;
74213;SDS011;62576;55.694;37.494;2023-05-10T00:54:17;18.63;;;5.35;;
74213;SDS011;62576;55.694;37.494;2023-05-10T00:56:47;12.43;;;4.88;;
74213;SDS011;62576;55.694;37.494;2023-05-10T00:59:18;13.32;;;4.82;;
74213;SDS011;62576;55.694;37.494;2023-05-10T01:01:45;14.90;;;5.40;;
74213;SDS011;62576;55.694;37.494;2023-05-10T01:04:19;13.20;;;4.75;;
74213;SDS011;62576;55.694;37.494;2023-05-10T01:06:53;10.82;;;4.60;;
74213;SDS011;62576;55.694;37.494;2023-05-10T01:09:24;13.90;;;4.78;;
74213;SDS011;62576;55.694;37.494;2023-05-10T01:11:55;11.95;;;4.60;;
74213;SDS011;62576;55.694;37.494;2023-05-10T01:14:26;11.23;;;4.78;;
74213;SDS011;62576;55.694;37.494;2023-05-10T01:16:57;8.23;;;4.35;;
74213;SDS011;62576;55.694;37.494;2023-05-10T01:19:29;10.50;;;4.70;;
74213;SDS011;62576;55.694;37.494;2023-05-10T01:22:07;11.70;;;4.97;;
74213;SDS011;62576;55.694;37.494;2023-05-10T01:25:01;10.18;;;4.70;;
74213;SDS011;62576;55.694;37.494;2023-05-10T01:31:06;12.52;;;4.47;;
74213;SDS011;62576;55.694;37.494;2023-05-10T01:33:50;14.48;;;5.05;;
74213;SDS011;62576;55.694;37.494;2023-05-10T01:36:26;11.98;;;4.57;;
74213;SDS011;62576;55.694;37.494;2023-05-10T01:39:01;11.68;;;4.88;;
74213;SDS011;62576;55.694;37.494;2023-05-10T01:41:36;10.05;;;4.50;;
74213;SDS011;62576;55.694;37.494;2023-05-10T01:44:16;11.98;;;4.50;;
74213;SDS011;62576;55.694;37.494;2023-05-10T01:46:55;10.73;;;3.72;;
74213;SDS011;62576;55.694;37.494;2023-05-10T01:49:33;11.88;;;4.50;;
74213;SDS011;62576;55.694;37.494;2023-05-10T01:52:06;10.85;;;4.22;;
74213;SDS011;62576;55.694;37.494;2023-05-10T01:54:41;11.32;;;4.78;;
74213;SDS011;62576;55.694;37.494;2023-05-10T01:57:14;7.88;;;3.90;;
74213;SDS011;62576;55.694;37.494;2023-05-10T01:59:47;14.57;;;4.77;;
74213;SDS011;62576;55.694;37.494;2023-05-10T02:02:16;10.90;;;4.30;;
74213;SDS011;62576;55.694;37.494;2023-05-10T02:04:50;16.65;;;4.60;;
74213;SDS011;62576;55.694;37.494;2023-05-10T02:07:21;12.35;;;4.63;;
74213;SDS011;62576;55.694;37.494;2023-05-10T02:09:52;9.77;;;4.55;;
74213;SDS011;62576;55.694;37.494;2023-05-10T02:12:24;12.07;;;4.55;;
74213;SDS011;62576;55.694;37.494;2023-05-10T02:14:56;18.13;;;3.92;;
74213;SDS011;62576;55.694;37.494;2023-05-10T02:17:29;14.20;;;5.60;;
74213;SDS011;62576;55.694;37.494;2023-05-10T02:20:02;15.85;;;4.68;;
74213;SDS011;62576;55.694;37.494;2023-05-10T02:22:34;10.88;;;4.80;;
74213;SDS011;62576;55.694;37.494;2023-05-10T02:25:09;15.32;;;4.72;;
74213;SDS011;62576;55.694;37.494;2023-05-10T02:27:43;6.03;;;3.40;;
74213;SDS011;62576;55.694;37.494;2023-05-10T02:30:15;10.02;;;4.10;;
74213;SDS011;62576;55.694;37.494;2023-05-10T02:32:47;11.35;;;4.50;;
74213;SDS011;62576;55.694;37.494;2023-05-10T02:35:20;10.73;;;4.40;;
74213;SDS011;62576;55.694;37.494;2023-05-10T02:37:52;17.17;;;4.40;;
74213;SDS011;62576;55.694;37.494;2023-05-10T02:40:23;14.20;;;4.00;;
74213;SDS011;62576;55.694;37.494;2023-05-10T02:42:56;10.43;;;3.97;;
74213;SDS011;62576;55.694;37.494;2023-05-10T02:45:29;10.23;;;4.05;;
74213;SDS011;62576;55.694;37.494;2023-05-10T02:48:00;13.10;;;4.18;;
74213;SDS011;62576;55.694;37.494;2023-05-10T02:50:32;14.05;;;3.97;;
74213;SDS011;62576;55.694;37.494;2023-05-10T02:53:04;9.73;;;4.35;;
74213;SDS011;62576;55.694;37.494;2023-05-10T02:55:40;10.77;;;4.00;;
74213;SDS011;62576;55.694;37.494;2023-05-10T02:58:11;14.27;;;4.28;;
74213;SDS011;62576;55.694;37.494;2023-05-10T03:00:41;9.43;;;3.78;;
74213;SDS011;62576;55.694;37.494;2023-05-10T03:03:11;10.80;;;4.30;;
74213;SDS011;62576;55.694;37.494;2023-05-10T03:05:43;11.55;;;3.95;;
74213;SDS011;62576;55.694;37.494;2023-05-10T03:08:15;9.07;;;4.20;;
74213;SDS011;62576;55.694;37.494;2023-05-10T03:10:47;7.97;;;3.72;;
74213;SDS011;62576;55.694;37.494;2023-05-10T03:13:27;10.73;;;4.25;;
74213;SDS011;62576;55.694;37.494;2023-05-10T03:16:06;11.00;;;4.10;;
74213;SDS011;62576;55.694;37.494;2023-05-10T03:18:42;17.48;;;8.82;;
74213;SDS011;62576;55.694;37.494;2023-05-10T03:21:18;14.35;;;4.28;;
74213;SDS011;62576;55.694;37.494;2023-05-10T03:23:53;11.40;;;3.83;;
74213;SDS011;62576;55.694;37.494;2023-05-10T03:26:28;16.10;;;4.30;;
74213;SDS011;62576;55.694;37.494;2023-05-10T03:28:59;10.57;;;3.95;;
74213;SDS011;62576;55.694;37.494;2023-05-10T03:31:29;9.98;;;3.78;;
74213;SDS011;62576;55.694;37.494;2023-05-10T03:33:59;9.93;;;3.85;;
74213;SDS011;62576;55.694;37.494;2023-05-10T03:36:30;9.00;;;3.83;;
74213;SDS011;62576;55.694;37.494;2023-05-10T03:39:01;12.10;;;3.60;;
74213;SDS011;62576;55.694;37.494;2023-05-10T03:41:31;10.00;;;3.45;;
74213;SDS011;62576;55.694;37.494;2023-05-10T03:44:01;10.07;;;3.75;;
74213;SDS011;62576;55.694;37.494;2023-05-10T03:46:31;10.30;;;3.80;;
74213;SDS011;62576;55.694;37.494;2023-05-10T03:49:01;14.43;;;4.00;;
74213;SDS011;62576;55.694;37.494;2023-05-10T03:51:33;11.70;;;3.80;;
74213;SDS011;62576;55.694;37.494;2023-05-10T03:54:03;10.13;;;3.63;;
74213;SDS011;62576;55.694;37.494;2023-05-10T03:56:33;9.07;;;3.90;;
74213;SDS011;62576;55.694;37.494;2023-05-10T03:59:04;8.45;;;3.83;;
74213;SDS011;62576;55.694;37.494;2023-05-10T04:01:35;12.75;;;3.88;;
74213;SDS011;62576;55.694;37.494;2023-05-10T04:04:05;8.65;;;4.07;;
74213;SDS011;62576;55.694;37.494;2023-05-10T04:06:37;12.45;;;4.05;;
74213;SDS011;62576;55.694;37.494;2023-05-10T04:09:07;8.43;;;3.50;;
74213;SDS011;62576;55.694;37.494;2023-05-10T04:11:37;12.57;;;3.83;;
74213;SDS011;62576;55.694;37.494;2023-05-10T04:14:08;10.30;;;3.78;;
74213;SDS011;62576;55.694;37.494;2023-05-10T04:16:41;12.65;;;3.45;;
74213;SDS011;62576;55.694;37.494;2023-05-10T04:19:14;10.88;;;3.75;;
74213;SDS011;62576;55.694;37.494;2023-05-10T04:21:45;12.70;;;4.20;;
74213;SDS011;62576;55.694;37.494;2023-05-10T04:24:19;10.30;;;3.72;;
74213;SDS011;62576;55.694;37.494;2023-05-10T04:26:49;16.00;;;3.95;;
74213;SDS011;62576;55.694;37.494;2023-05-10T04:29:19;11.38;;;3.90;;
74213;SDS011;62576;55.694;37.494;2023-05-10T04:31:49;9.38;;;3.92;;
74213;SDS011;62576;55.694;37.494;2023-05-10T04:34:20;19.27;;;4.13;;
74213;SDS011;62576;55.694;37.494;2023-05-10T04:36:51;9.73;;;3.55;;
74213;SDS011;62576;55.694;37.494;2023-05-10T04:39:21;11.35;;;3.70;;
74213;SDS011;62576;55.694;37.494;2023-05-10T04:41:51;11.70;;;4.15;;
74213;SDS011;62576;55.694;37.494;2023-05-10T04:44:22;15.77;;;4.35;;
74213;SDS011;62576;55.694;37.494;2023-05-10T04:46:52;15.18;;;3.90;;
74213;SDS011;62576;55.694;37.494;2023-05-10T04:49:23;11.85;;;3.88;;
74213;SDS011;62576;55.694;37.494;2023-05-10T04:57:49;15.60;;;4.18;;
74213;SDS011;62576;55.694;37.494;2023-05-10T05:00:19;10.95;;;3.90;;
74213;SDS011;62576;55.694;37.494;2023-05-10T05:02:49;11.82;;;4.10;;
74213;SDS011;62576;55.694;37.494;2023-05-10T05:05:19;15.48;;;4.05;;
74213;SDS011;62576;55.694;37.494;2023-05-10T05:07:50;12.40;;;4.10;;
74213;SDS011;62576;55.694;37.494;2023-05-10T05:10:25;13.05;;;4.00;;
74213;SDS011;62576;55.694;37.494;2023-05-10T05:12:54;11.90;;;3.50;;
74213;SDS011;62576;55.694;37.494;2023-05-10T05:15:24;12.40;;;4.03;;
74213;SDS011;62576;55.694;37.494;2023-05-10T05:17:55;18.17;;;4.15;;
74213;SDS011;62576;55.694;37.494;2023-05-10T05:20:31;11.32;;;4.07;;
74213;SDS011;62576;55.694;37.494;2023-05-10T05:23:02;12.10;;;3.40;;
74213;SDS011;62576;55.694;37.494;2023-05-10T05:25:33;14.40;;;4.00;;
74213;SDS011;62576;55.694;37.494;2023-05-10T05:28:01;10.52;;;3.67;;
74213;SDS011;62576;55.694;37.494;2023-05-10T05:30:34;14.57;;;3.88;;
74213;SDS011;62576;55.694;37.494;2023-05-10T05:33:04;20.88;;;4.30;;
74213;SDS011;62576;55.694;37.494;2023-05-10T05:35:37;14.75;;;4.10;;
74213;SDS011;62576;55.694;37.494;2023-05-10T05:38:07;16.30;;;3.90;;
74213;SDS011;62576;55.694;37.494;2023-05-10T05:40:39;14.18;;;4.20;;
74213;SDS011;62576;55.694;37.494;2023-05-10T05:43:14;14.38;;;4.15;;
74213;SDS011;62576;55.694;37.494;2023-05-10T05:45:45;16.17;;;4.72;;
74213;SDS011;62576;55.694;37.494;2023-05-10T05:48:15;10.60;;;3.53;;
74213;SDS011;62576;55.694;37.494;2023-05-10T05:50:46;16.30;;;4.00;;
74213;SDS011;62576;55.694;37.494;2023-05-10T05:53:16;15.57;;;4.30;;
74213;SDS011;62576;55.694;37.494;2023-05-10T05:55:52;17.67;;;4.85;;
74213;SDS011;62576;55.694;37.494;2023-05-10T05:58:23;12.13;;;3.25;;
74213;SDS011;62576;55.694;37.494;2023-05-10T06:00:53;12.13;;;3.58;;
74213;SDS011;62576;55.694;37.494;2023-05-10T06:03:23;13.88;;;2.70;;
74213;SDS011;62576;55.694;37.494;2023-05-10T06:05:53;11.52;;;2.95;;
74213;SDS011;62576;55.694;37.494;2023-05-10T06:08:24;12.90;;;3.38;;
74213;SDS011;62576;55.694;37.494;2023-05-10T06:10:55;8.55;;;3.03;;
74213;SDS011;62576;55.694;37.494;2023-05-10T06:13:25;11.90;;;3.00;;
74213;SDS011;62576;55.694;37.494;2023-05-10T06:16:00;6.55;;;2.60;;
74213;SDS011;62576;55.694;37.494;2023-05-10T06:18:30;10.73;;;3.25;;
74213;SDS011;62576;55.694;37.494;2023-05-10T06:21:00;8.48;;;2.78;;
74213;SDS011;62576;55.694;37.494;2023-05-10T06:23:30;12.93;;;2.90;;
74213;SDS011;62576;55.694;37.494;2023-05-10T06:26:02;7.38;;;2.42;;
74213;SDS011;62576;55.694;37.494;2023-05-10T06:28:32;6.85;;;2.58;;
74213;SDS011;62576;55.694;37.494;2023-05-10T06:31:02;7.50;;;2.20;;
74213;SDS011;62576;55.694;37.494;2023-05-10T06:33:33;4.97;;;2.58;;
74213;SDS011;62576;55.694;37.494;2023-05-10T06:36:03;6.25;;;2.25;;
74213;SDS011;62576;55.694;37.494;2023-05-10T06:38:33;4.88;;;2.10;;
74213;SDS011;62576;55.694;37.494;2023-05-10T06:41:05;5.07;;;2.28;;
74213;SDS011;62576;55.694;37.494;2023-05-10T06:43:36;6.50;;;2.13;;
74213;SDS011;62576;55.694;37.494;2023-05-10T06:46:07;7.07;;;2.30;;
74213;SDS011;62576;55.694;37.494;2023-05-10T06:48:38;8.20;;;2.60;;
74213;SDS011;62576;55.694;37.494;2023-05-10T06:51:08;5.20;;;2.05;;
74213;SDS011;62576;55.694;37.494;2023-05-10T06:53:38;9.63;;;1.98;;
74213;SDS011;62576;55.694;37.494;2023-05-10T06:56:09;8.73;;;2.25;;
74213;SDS011;62576;55.694;37.494;2023-05-10T06:58:39;6.63;;;2.15;;
74213;SDS011;62576;55.694;37.494;2023-05-10T07:01:09;4.78;;;2.05;;
74213;SDS011;62576;55.694;37.494;2023-05-10T07:03:39;5.80;;;2.35;;
74213;SDS011;62576;55.694;37.494;2023-05-10T07:06:09;6.88;;;2.65;;
74213;SDS011;62576;55.694;37.494;2023-05-10T07:08:39;5.43;;;1.90;;
74213;SDS011;62576;55.694;37.494;2023-05-10T07:11:11;5.13;;;2.30;;
74213;SDS011;62576;55.694;37.494;2023-05-10T07:13:41;6.75;;;2.30;;
74213;SDS011;62576;55.694;37.494;2023-05-10T07:16:12;11.52;;;4.28;;
74213;SDS011;62576;55.694;37.494;2023-05-10T07:18:42;9.32;;;2.78;;
74213;SDS011;62576;55.694;37.494;2023-05-10T07:21:12;8.05;;;3.90;;
74213;SDS011;62576;55.694;37.494;2023-05-10T07:23:42;7.03;;;2.20;;
74213;SDS011;62576;55.694;37.494;2023-05-10T07:26:14;18.10;;;2.60;;
74213;SDS011;62576;55.694;37.494;2023-05-10T07:28:44;10.40;;;2.42;;
74213;SDS011;62576;55.694;37.494;2023-05-10T07:31:15;6.70;;;2.30;;
74213;SDS011;62576;55.694;37.494;2023-05-10T07:33:45;5.88;;;2.28;;
74213;SDS011;62576;55.694;37.494;2023-05-10T07:36:15;8.88;;;2.60;;
74213;SDS011;62576;55.694;37.494;2023-05-10T07:38:45;11.38;;;2.20;;
74213;SDS011;62576;55.694;37.494;2023-05-10T07:41:19;6.43;;;2.08;;
74213;SDS011;62576;55.694;37.494;2023-05-10T07:43:50;4.68;;;2.22;;
74213;SDS011;62576;55.694;37.494;2023-05-10T07:46:20;4.63;;;2.03;;
74213;SDS011;62576;55.694;37.494;2023-05-10T07:48:50;5.57;;;2.30;;
74213;SDS011;62576;55.694;37.494;2023-05-10T07:51:20;8.85;;;2.30;;
74213;SDS011;62576;55.694;37.494;2023-05-10T07:53:50;14.98;;;2.97;;
74213;SDS011;62576;55.694;37.494;2023-05-10T07:56:22;8.05;;;2.50;;
74213;SDS011;62576;55.694;37.494;2023-05-10T07:58:55;6.60;;;2.10;;
74213;SDS011;62576;55.694;37.494;2023-05-10T08:01:26;5.95;;;2.50;;
74213;SDS011;62576;55.694;37.494;2023-05-10T08:03:59;4.25;;;2.10;;
74213;SDS011;62576;55.694;37.494;2023-05-10T08:06:29;10.20;;;2.45;;
74213;SDS011;62576;55.694;37.494;2023-05-10T08:08:59;8.57;;;3.08;;
74213;SDS011;62576;55.694;37.494;2023-05-10T08:11:31;9.10;;;2.40;;
74213;SDS011;62576;55.694;37.494;2023-05-10T08:14:01;5.72;;;2.42;;
74213;SDS011;62576;55.694;37.494;2023-05-10T08:16:31;4.93;;;2.42;;
74213;SDS011;62576;55.694;37.494;2023-05-10T08:19:02;4.47;;;2.30;;
74213;SDS011;62576;55.694;37.494;2023-05-10T08:21:32;5.93;;;2.25;;
74213;SDS011;62576;55.694;37.494;2023-05-10T08:24:02;5.57;;;2.55;;
74213;SDS011;62576;55.694;37.494;2023-05-10T08:26:34;7.20;;;2.28;;
74213;SDS011;62576;55.694;37.494;2023-05-10T08:29:04;3.88;;;2.15;;
74213;SDS011;62576;55.694;37.494;2023-05-10T08:31:34;4.05;;;2.30;;
74213;SDS011;62576;55.694;37.494;2023-05-10T08:34:04;6.95;;;2.42;;
74213;SDS011;62576;55.694;37.494;2023-05-10T08:36:34;8.65;;;2.70;;
74213;SDS011;62576;55.694;37.494;2023-05-10T08:39:04;9.15;;;2.55;;
74213;SDS011;62576;55.694;37.494;2023-05-10T08:41:36;8.98;;;2.67;;
74213;SDS011;62576;55.694;37.494;2023-05-10T08:44:08;5.43;;;2.40;;
74213;SDS011;62576;55.694;37.494;2023-05-10T08:46:38;5.28;;;2.80;;
74213;SDS011;62576;55.694;37.494;2023-05-10T08:49:13;5.43;;;2.40;;
74213;SDS011;62576;55.694;37.494;2023-05-10T08:51:49;6.53;;;2.40;;
74213;SDS011;62576;55.694;37.494;2023-05-10T08:54:24;5.90;;;2.55;;
74213;SDS011;62576;55.694;37.494;2023-05-10T08:56:56;5.25;;;2.47;;
74213;SDS011;62576;55.694;37.494;2023-05-10T08:59:26;5.20;;;2.08;;
74213;SDS011;62576;55.694;37.494;2023-05-10T09:01:55;4.25;;;1.95;;
74213;SDS011;62576;55.694;37.494;2023-05-10T09:04:28;9.35;;;2.17;;
74213;SDS011;62576;55.694;37.494;2023-05-10T09:06:59;6.18;;;2.42;;
74213;SDS011;62576;55.694;37.494;2023-05-10T09:09:29;5.63;;;2.08;;
74213;SDS011;62576;55.694;37.494;2023-05-10T09:12:02;4.93;;;2.10;;
74213;SDS011;62576;55.694;37.494;2023-05-10T09:14:32;4.87;;;2.20;;
74213;SDS011;62576;55.694;37.494;2023-05-10T09:17:04;3.05;;;1.75;;
74213;SDS011;62576;55.694;37.494;2023-05-10T09:19:35;4.97;;;2.00;;
74213;SDS011;62576;55.694;37.494;2023-05-10T09:22:04;3.33;;;1.73;;
74213;SDS011;62576;55.694;37.494;2023-05-10T09:24:35;7.82;;;1.90;;
74213;SDS011;62576;55.694;37.494;2023-05-10T09:27:12;4.18;;;1.75;;
74213;SDS011;62576;55.694;37.494;2023-05-10T09:29:42;4.70;;;1.80;;
74213;SDS011;62576;55.694;37.494;2023-05-10T09:32:14;5.15;;;1.90;;
74213;SDS011;62576;55.694;37.494;2023-05-10T09:34:44;4.00;;;1.65;;
74213;SDS011;62576;55.694;37.494;2023-05-10T09:37:14;3.67;;;1.90;;
74213;SDS011;62576;55.694;37.494;2023-05-10T09:39:44;6.60;;;1.92;;
74213;SDS011;62576;55.694;37.494;2023-05-10T09:42:17;4.90;;;2.05;;
74213;SDS011;62576;55.694;37.494;2023-05-10T09:44:50;4.15;;;1.98;;
74213;SDS011;62576;55.694;37.494;2023-05-10T09:47:20;7.00;;;2.60;;
74213;SDS011;62576;55.694;37.494;2023-05-10T09:49:52;5.05;;;2.22;;
74213;SDS011;62576;55.694;37.494;2023-05-10T09:52:24;4.38;;;2.35;;
74213;SDS011;62576;55.694;37.494;2023-05-10T09:54:54;7.00;;;2.65;;
74213;SDS011;62576;55.694;37.494;2023-05-10T09:57:25;5.72;;;2.40;;
74213;SDS011;62576;55.694;37.494;2023-05-10T09:59:55;6.30;;;2.30;;
74213;SDS011;62576;55.694;37.494;2023-05-10T10:02:28;6.88;;;2.72;;
74213;SDS011;62576;55.694;37.494;2023-05-10T10:04:59;5.95;;;2.50;;
74213;SDS011;62576;55.694;37.494;2023-05-10T10:07:31;5.93;;;2.38;;
74213;SDS011;62576;55.694;37.494;2023-05-10T10:10:01;6.35;;;2.67;;
74213;SDS011;62576;55.694;37.494;2023-05-10T10:12:34;9.52;;;2.53;;
74213;SDS011;62576;55.694;37.494;2023-05-10T10:15:04;6.57;;;2.55;;
74213;SDS011;62576;55.694;37.494;2023-05-10T10:17:36;7.97;;;2.55;;
74213;SDS011;62576;55.694;37.494;2023-05-10T10:20:08;5.37;;;2.30;;
74213;SDS011;62576;55.694;37.494;2023-05-10T10:22:39;6.15;;;2.80;;
74213;SDS011;62576;55.694;37.494;2023-05-10T10:25:10;5.78;;;2.53;;
74213;SDS011;62576;55.694;37.494;2023-05-10T10:27:44;4.18;;;2.35;;
74213;SDS011;62576;55.694;37.494;2023-05-10T10:30:24;11.35;;;3.03;;
74213;SDS011;62576;55.694;37.494;2023-05-10T10:33:08;5.30;;;2.50;;
74213;SDS011;62576;55.694;37.494;2023-05-10T10:35:57;5.32;;;2.58;;
74213;SDS011;62576;55.694;37.494;2023-05-10T10:41:28;7.50;;;2.83;;
74213;SDS011;62576;55.694;37.494;2023-05-10T10:47:04;6.65;;;2.50;;
74213;SDS011;62576;55.694;37.494;2023-05-10T10:52:22;7.45;;;3.35;;
74213;SDS011;62576;55.694;37.494;2023-05-10T10:55:00;6.18;;;2.45;;
74213;SDS011;62576;55.694;37.494;2023-05-10T10:57:32;9.70;;;2.78;;
74213;SDS011;62576;55.694;37.494;2023-05-10T11:00:24;7.85;;;2.60;;
74213;SDS011;62576;55.694;37.494;2023-05-10T11:02:56;17.05;;;9.55;;
74213;SDS011;62576;55.694;37.494;2023-05-10T11:08:15;7.45;;;2.80;;
74213;SDS011;62576;55.694;37.494;2023-05-10T11:10:50;7.53;;;3.15;;
74213;SDS011;62576;55.694;37.494;2023-05-10T11:16:11;8.45;;;3.30;;
74213;SDS011;62576;55.694;37.494;2023-05-10T11:21:30;6.63;;;2.70;;
74213;SDS011;62576;55.694;37.494;2023-05-10T11:24:01;6.90;;;2.78;;
74213;SDS011;62576;55.694;37.494;2023-05-10T11:26:42;8.18;;;3.00;;
74213;SDS011;62576;55.694;37.494;2023-05-10T11:29:12;6.45;;;3.50;;
74213;SDS011;62576;55.694;37.494;2023-05-10T11:31:44;8.63;;;3.10;;
74213;SDS011;62576;55.694;37.494;2023-05-10T11:37:01;7.60;;;3.15;;
74213;SDS011;62576;55.694;37.494;2023-05-10T11:39:31;10.80;;;2.90;;
74213;SDS011;62576;55.694;37.494;2023-05-10T11:42:02;7.03;;;2.65;;
74213;SDS011;62576;55.694;37.494;2023-05-10T11:44:32;18.23;;;3.67;;
74213;SDS011;62576;55.694;37.494;2023-05-10T11:47:04;11.90;;;4.00;;
74213;SDS011;62576;55.694;37.494;2023-05-10T11:49:35;7.80;;;3.10;;
74213;SDS011;62576;55.694;37.494;2023-05-10T11:52:05;4.40;;;2.90;;
74213;SDS011;62576;55.694;37.494;2023-05-10T11:54:38;6.13;;;2.72;;
74213;SDS011;62576;55.694;37.494;2023-05-10T11:57:15;5.85;;;2.63;;
74213;SDS011;62576;55.694;37.494;2023-05-10T11:59:45;7.80;;;2.80;;
74213;SDS011;62576;55.694;37.494;2023-05-10T12:02:14;8.75;;;3.15;;
74213;SDS011;62576;55.694;37.494;2023-05-10T12:04:44;14.73;;;3.10;;
74213;SDS011;62576;55.694;37.494;2023-05-10T12:07:14;11.02;;;2.85;;
74213;SDS011;62576;55.694;37.494;2023-05-10T12:09:55;11.48;;;3.13;;
74213;SDS011;62576;55.694;37.494;2023-05-10T12:12:36;10.98;;;3.22;;
74213;SDS011;62576;55.694;37.494;2023-05-10T12:15:10;6.88;;;2.75;;
74213;SDS011;62576;55.694;37.494;2023-05-10T12:17:43;9.10;;;2.72;;
74213;SDS011;62576;55.694;37.494;2023-05-10T12:20:13;5.35;;;2.67;;
74213;SDS011;62576;55.694;37.494;2023-05-10T12:22:45;7.35;;;2.65;;
74213;SDS011;62576;55.694;37.494;2023-05-10T12:25:17;5.78;;;2.65;;
74213;SDS011;62576;55.694;37.494;2023-05-10T12:27:48;10.48;;;2.90;;
74213;SDS011;62576;55.694;37.494;2023-05-10T12:30:20;6.40;;;2.60;;
74213;SDS011;62576;55.694;37.494;2023-05-10T12:32:53;7.75;;;3.08;;
74213;SDS011;62576;55.694;37.494;2023-05-10T12:35:30;4.32;;;2.33;;
74213;SDS011;62576;55.694;37.494;2023-05-10T12:38:00;10.07;;;2.85;;
74213;SDS011;62576;55.694;37.494;2023-05-10T12:40:30;10.10;;;3.22;;
74213;SDS011;62576;55.694;37.494;2023-05-10T12:43:00;8.00;;;2.50;;
74213;SDS011;62576;55.694;37.494;2023-05-10T12:45:30;5.00;;;2.70;;
74213;SDS011;62576;55.694;37.494;2023-05-10T12:48:02;9.10;;;2.70;;
74213;SDS011;62576;55.694;37.494;2023-05-10T12:50:32;7.80;;;2.70;;
74213;SDS011;62576;55.694;37.494;2023-05-10T12:53:03;9.20;;;2.70;;
74213;SDS011;62576;55.694;37.494;2023-05-10T12:55:32;4.68;;;2.63;;
74213;SDS011;62576;55.694;37.494;2023-05-10T12:58:02;6.30;;;2.55;;
74213;SDS011;62576;55.694;37.494;2023-05-10T13:00:32;5.28;;;2.60;;
74213;SDS011;62576;55.694;37.494;2023-05-10T13:03:04;7.78;;;2.70;;
74213;SDS011;62576;55.694;37.494;2023-05-10T13:05:34;6.78;;;2.50;;
74213;SDS011;62576;55.694;37.494;2023-05-10T13:08:04;9.43;;;2.85;;
74213;SDS011;62576;55.694;37.494;2023-05-10T13:10:35;9.30;;;2.60;;
74213;SDS011;62576;55.694;37.494;2023-05-10T13:13:05;11.52;;;2.50;;
74213;SDS011;62576;55.694;37.494;2023-05-10T13:15:35;12.25;;;2.75;;
74213;SDS011;62576;55.694;37.494;2023-05-10T13:18:07;9.02;;;2.97;;
74213;SDS011;62576;55.694;37.494;2023-05-10T13:20:37;6.97;;;2.75;;
74213;SDS011;62576;55.694;37.494;2023-05-10T13:23:07;7.85;;;2.90;;
74213;SDS011;62576;55.694;37.494;2023-05-10T13:25:38;9.13;;;2.92;;
74213;SDS011;62576;55.694;37.494;2023-05-10T13:28:08;6.85;;;2.50;;
74213;SDS011;62576;55.694;37.494;2023-05-10T13:30:38;6.90;;;2.60;;
74213;SDS011;62576;55.694;37.494;2023-05-10T13:33:09;12.20;;;2.75;;
74213;SDS011;62576;55.694;37.494;2023-05-10T13:35:42;5.78;;;2.80;;
74213;SDS011;62576;55.694;37.494;2023-05-10T13:38:13;5.95;;;2.70;;
74213;SDS011;62576;55.694;37.494;2023-05-10T13:40:43;6.03;;;2.70;;
74213;SDS011;62576;55.694;37.494;2023-05-10T13:43:13;3.92;;;2.30;;
74213;SDS011;62576;55.694;37.494;2023-05-10T13:45:43;6.10;;;2.40;;
74213;SDS011;62576;55.694;37.494;2023-05-10T13:48:15;8.30;;;3.40;;
74213;SDS011;62576;55.694;37.494;2023-05-10T13:50:45;6.65;;;2.65;;
74213;SDS011;62576;55.694;37.494;2023-05-10T13:53:15;8.68;;;2.40;;
74213;SDS011;62576;55.694;37.494;2023-05-10T13:55:45;12.45;;;2.80;;
74213;SDS011;62576;55.694;37.494;2023-05-10T13:58:15;5.85;;;2.67;;
74213;SDS011;62576;55.694;37.494;2023-05-10T14:00:45;8.32;;;2.70;;
74213;SDS011;62576;55.694;37.494;2023-05-10T14:03:17;5.07;;;2.50;;
74213;SDS011;62576;55.694;37.494;2023-05-10T14:05:47;4.40;;;2.30;;
74213;SDS011;62576;55.694;37.494;2023-05-10T14:08:17;10.02;;;2.40;;
74213;SDS011;62576;55.694;37.494;2023-05-10T14:10:47;6.13;;;2.80;;
74213;SDS011;62576;55.694;37.494;2023-05-10T14:13:18;14.35;;;3.65;;
74213;SDS011;62576;55.694;37.494;2023-05-10T14:15:48;22.20;;;3.63;;
74213;SDS011;62576;55.694;37.494;2023-05-10T14:18:20;12.95;;;2.97;;
74213;SDS011;62576;55.694;37.494;2023-05-10T14:20:50;9.95;;;2.95;;
74213;SDS011;62576;55.694;37.494;2023-05-10T14:23:20;7.65;;;2.88;;
74213;SDS011;62576;55.694;37.494;2023-05-10T14:25:52;5.57;;;2.67;;
74213;SDS011;62576;55.694;37.494;2023-05-10T14:28:22;10.10;;;2.80;;
74213;SDS011;62576;55.694;37.494;2023-05-10T14:30:52;14.27;;;5.70;;
74213;SDS011;62576;55.694;37.494;2023-05-10T14:33:24;5.70;;;2.83;;
74213;SDS011;62576;55.694;37.494;2023-05-10T14:35:54;11.00;;;2.80;;
74213;SDS011;62576;55.694;37.494;2023-05-10T14:38:25;6.75;;;3.03;;
74213;SDS011;62576;55.694;37.494;2023-05-10T14:40:56;5.78;;;2.40;;
74213;SDS011;62576;55.694;37.494;2023-05-10T14:43:26;7.70;;;2.85;;
74213;SDS011;62576;55.694;37.494;2023-05-10T14:45:56;4.43;;;2.42;;
74213;SDS011;62576;55.694;37.494;2023-05-10T14:48:28;13.38;;;6.60;;
74213;SDS011;62576;55.694;37.494;2023-05-10T14:51:01;8.10;;;2.58;;
74213;SDS011;62576;55.694;37.494;2023-05-10T14:53:31;5.05;;;2.72;;
74213;SDS011;62576;55.694;37.494;2023-05-10T14:56:01;6.20;;;2.60;;
74213;SDS011;62576;55.694;37.494;2023-05-10T14:58:32;5.03;;;2.67;;
74213;SDS011;62576;55.694;37.494;2023-05-10T15:01:02;6.22;;;2.70;;
74213;SDS011;62576;55.694;37.494;2023-05-10T15:03:34;5.35;;;2.47;;
74213;SDS011;62576;55.694;37.494;2023-05-10T15:06:05;10.48;;;2.75;;
74213;SDS011;62576;55.694;37.494;2023-05-10T15:08:35;7.80;;;2.85;;
74213;SDS011;62576;55.694;37.494;2023-05-10T15:11:05;6.00;;;2.60;;
74213;SDS011;62576;55.694;37.494;2023-05-10T15:13:35;8.38;;;2.90;;
74213;SDS011;62576;55.694;37.494;2023-05-10T15:16:06;13.27;;;3.63;;
74213;SDS011;62576;55.694;37.494;2023-05-10T15:18:37;14.35;;;7.15;;
74213;SDS011;62576;55.694;37.494;2023-05-10T15:21:07;11.05;;;2.90;;
74213;SDS011;62576;55.694;37.494;2023-05-10T15:23:38;8.23;;;3.03;;